sensor_id;sensor_type;location;lat;lon;timestamp;P1;durP1;ratioP1;P2;durP2;ratioP2
62654;SDS011;48717;55.556;37.816;2023-05-07T00:00:22;9.10;;;3.88;;
62654;SDS011;48717;55.556;37.816;2023-05-07T00:02:49;8.13;;;3.88;;
62654;SDS011;48717;55.556;37.816;2023-05-07T00:05:16;8.23;;;3.40;;
62654;SDS011;48717;55.556;37.816;2023-05-07T00:07:44;6.22;;;3.65;;
62654;SDS011;48717;55.556;37.816;2023-05-07T00:10:11;8.57;;;3.53;;
62654;SDS011;48717;55.556;37.816;2023-05-07T00:12:40;7.20;;;3.75;;
62654;SDS011;48717;55.556;37.816;2023-05-07T00:15:07;6.72;;;3.60;;
62654;SDS011;48717;55.556;37.816;2023-05-07T00:17:35;7.57;;;3.83;;
62654;SDS011;48717;55.556;37.816;2023-05-07T00:20:03;5.15;;;3.25;;
62654;SDS011;48717;55.556;37.816;2023-05-07T00:22:32;9.37;;;3.63;;
62654;SDS011;48717;55.556;37.816;2023-05-07T00:25:00;8.50;;;3.75;;
62654;SDS011;48717;55.556;37.816;2023-05-07T00:27:32;5.35;;;2.92;;
62654;SDS011;48717;55.556;37.816;2023-05-07T00:29:59;8.30;;;3.95;;
62654;SDS011;48717;55.556;37.816;2023-05-07T00:32:33;6.82;;;3.33;;
62654;SDS011;48717;55.556;37.816;2023-05-07T00:35:01;6.20;;;3.55;;
62654;SDS011;48717;55.556;37.816;2023-05-07T00:37:29;6.68;;;3.90;;
62654;SDS011;48717;55.556;37.816;2023-05-07T00:39:57;6.82;;;3.58;;
62654;SDS011;48717;55.556;37.816;2023-05-07T00:42:24;7.88;;;4.28;;
62654;SDS011;48717;55.556;37.816;2023-05-07T00:44:51;7.88;;;3.45;;
62654;SDS011;48717;55.556;37.816;2023-05-07T00:47:18;5.60;;;3.58;;
62654;SDS011;48717;55.556;37.816;2023-05-07T00:49:46;10.13;;;3.67;;
62654;SDS011;48717;55.556;37.816;2023-05-07T00:52:14;6.20;;;3.78;;
62654;SDS011;48717;55.556;37.816;2023-05-07T00:54:43;13.10;;;4.85;;
62654;SDS011;48717;55.556;37.816;2023-05-07T00:57:11;9.15;;;4.63;;
62654;SDS011;48717;55.556;37.816;2023-05-07T00:59:38;8.35;;;4.63;;
62654;SDS011;48717;55.556;37.816;2023-05-07T01:02:07;12.05;;;5.20;;
62654;SDS011;48717;55.556;37.816;2023-05-07T01:04:35;13.25;;;5.07;;
62654;SDS011;48717;55.556;37.816;2023-05-07T01:07:02;12.20;;;4.53;;
62654;SDS011;48717;55.556;37.816;2023-05-07T01:09:30;12.88;;;4.78;;
62654;SDS011;48717;55.556;37.816;2023-05-07T01:11:58;10.20;;;5.03;;
62654;SDS011;48717;55.556;37.816;2023-05-07T01:14:26;8.02;;;4.38;;
62654;SDS011;48717;55.556;37.816;2023-05-07T01:16:54;9.43;;;4.68;;
62654;SDS011;48717;55.556;37.816;2023-05-07T01:19:23;11.07;;;4.20;;
62654;SDS011;48717;55.556;37.816;2023-05-07T01:21:50;8.10;;;4.80;;
62654;SDS011;48717;55.556;37.816;2023-05-07T01:24:23;10.35;;;4.60;;
62654;SDS011;48717;55.556;37.816;2023-05-07T01:26:50;8.57;;;4.38;;
62654;SDS011;48717;55.556;37.816;2023-05-07T01:29:17;8.05;;;4.50;;
62654;SDS011;48717;55.556;37.816;2023-05-07T01:31:46;7.38;;;4.20;;
62654;SDS011;48717;55.556;37.816;2023-05-07T01:34:14;8.60;;;4.70;;
62654;SDS011;48717;55.556;37.816;2023-05-07T01:36:44;9.80;;;4.20;;
62654;SDS011;48717;55.556;37.816;2023-05-07T01:39:13;8.80;;;4.40;;
62654;SDS011;48717;55.556;37.816;2023-05-07T01:41:41;9.90;;;4.40;;
62654;SDS011;48717;55.556;37.816;2023-05-07T01:44:10;7.43;;;4.25;;
62654;SDS011;48717;55.556;37.816;2023-05-07T01:46:39;10.23;;;4.37;;
62654;SDS011;48717;55.556;37.816;2023-05-07T01:49:06;7.47;;;4.20;;
62654;SDS011;48717;55.556;37.816;2023-05-07T01:51:34;6.97;;;4.47;;
62654;SDS011;48717;55.556;37.816;2023-05-07T01:54:02;7.03;;;4.22;;
62654;SDS011;48717;55.556;37.816;2023-05-07T01:56:29;9.80;;;4.53;;
62654;SDS011;48717;55.556;37.816;2023-05-07T01:58:57;12.15;;;4.72;;
62654;SDS011;48717;55.556;37.816;2023-05-07T02:01:24;11.30;;;4.80;;
62654;SDS011;48717;55.556;37.816;2023-05-07T02:03:51;8.05;;;4.45;;
62654;SDS011;48717;55.556;37.816;2023-05-07T02:06:23;14.25;;;5.07;;
62654;SDS011;48717;55.556;37.816;2023-05-07T02:08:54;10.05;;;4.97;;
62654;SDS011;48717;55.556;37.816;2023-05-07T02:11:21;8.90;;;4.57;;
62654;SDS011;48717;55.556;37.816;2023-05-07T02:13:49;12.05;;;4.85;;
62654;SDS011;48717;55.556;37.816;2023-05-07T02:16:16;12.15;;;4.22;;
62654;SDS011;48717;55.556;37.816;2023-05-07T02:18:43;12.38;;;4.93;;
62654;SDS011;48717;55.556;37.816;2023-05-07T02:21:10;13.77;;;4.80;;
62654;SDS011;48717;55.556;37.816;2023-05-07T02:23:37;14.55;;;5.15;;
62654;SDS011;48717;55.556;37.816;2023-05-07T02:26:04;10.00;;;4.70;;
62654;SDS011;48717;55.556;37.816;2023-05-07T02:28:32;10.35;;;5.05;;
62654;SDS011;48717;55.556;37.816;2023-05-07T02:31:03;11.40;;;4.90;;
62654;SDS011;48717;55.556;37.816;2023-05-07T02:33:31;12.23;;;5.53;;
62654;SDS011;48717;55.556;37.816;2023-05-07T02:36:11;11.68;;;5.50;;
62654;SDS011;48717;55.556;37.816;2023-05-07T02:38:45;8.13;;;4.53;;
62654;SDS011;48717;55.556;37.816;2023-05-07T02:41:13;7.15;;;3.75;;
62654;SDS011;48717;55.556;37.816;2023-05-07T02:43:40;10.55;;;4.50;;
62654;SDS011;48717;55.556;37.816;2023-05-07T02:46:07;8.50;;;4.05;;
62654;SDS011;48717;55.556;37.816;2023-05-07T02:48:40;8.55;;;4.75;;
62654;SDS011;48717;55.556;37.816;2023-05-07T02:51:07;11.93;;;4.43;;
62654;SDS011;48717;55.556;37.816;2023-05-07T02:53:36;9.73;;;4.70;;
62654;SDS011;48717;55.556;37.816;2023-05-07T02:56:03;9.55;;;4.65;;
62654;SDS011;48717;55.556;37.816;2023-05-07T02:58:32;9.77;;;4.47;;
62654;SDS011;48717;55.556;37.816;2023-05-07T03:01:01;8.52;;;4.30;;
62654;SDS011;48717;55.556;37.816;2023-05-07T03:03:33;10.05;;;4.50;;
62654;SDS011;48717;55.556;37.816;2023-05-07T03:06:00;10.05;;;4.57;;
62654;SDS011;48717;55.556;37.816;2023-05-07T03:08:28;8.65;;;4.75;;
62654;SDS011;48717;55.556;37.816;2023-05-07T03:10:55;11.48;;;4.90;;
62654;SDS011;48717;55.556;37.816;2023-05-07T03:13:22;8.85;;;4.57;;
62654;SDS011;48717;55.556;37.816;2023-05-07T03:15:50;10.07;;;4.28;;
62654;SDS011;48717;55.556;37.816;2023-05-07T03:18:17;8.77;;;4.75;;
62654;SDS011;48717;55.556;37.816;2023-05-07T03:20:48;8.65;;;4.72;;
62654;SDS011;48717;55.556;37.816;2023-05-07T03:23:16;12.40;;;4.75;;
62654;SDS011;48717;55.556;37.816;2023-05-07T03:25:44;11.73;;;4.25;;
62654;SDS011;48717;55.556;37.816;2023-05-07T03:28:11;10.90;;;5.07;;
62654;SDS011;48717;55.556;37.816;2023-05-07T03:30:45;9.98;;;4.60;;
62654;SDS011;48717;55.556;37.816;2023-05-07T03:33:12;13.75;;;4.90;;
62654;SDS011;48717;55.556;37.816;2023-05-07T03:35:40;9.07;;;4.40;;
62654;SDS011;48717;55.556;37.816;2023-05-07T03:38:09;12.63;;;5.07;;
62654;SDS011;48717;55.556;37.816;2023-05-07T03:40:37;9.13;;;4.45;;
62654;SDS011;48717;55.556;37.816;2023-05-07T03:43:04;8.38;;;4.45;;
62654;SDS011;48717;55.556;37.816;2023-05-07T03:45:34;10.73;;;4.75;;
62654;SDS011;48717;55.556;37.816;2023-05-07T03:48:10;7.40;;;4.30;;
62654;SDS011;48717;55.556;37.816;2023-05-07T03:50:37;8.73;;;4.82;;
62654;SDS011;48717;55.556;37.816;2023-05-07T03:53:04;9.70;;;4.70;;
62654;SDS011;48717;55.556;37.816;2023-05-07T03:55:36;7.72;;;4.35;;
62654;SDS011;48717;55.556;37.816;2023-05-07T03:58:03;10.98;;;4.75;;
62654;SDS011;48717;55.556;37.816;2023-05-07T04:00:31;7.85;;;4.25;;
62654;SDS011;48717;55.556;37.816;2023-05-07T04:03:12;9.88;;;4.20;;
62654;SDS011;48717;55.556;37.816;2023-05-07T04:05:39;7.00;;;4.03;;
62654;SDS011;48717;55.556;37.816;2023-05-07T04:08:07;6.15;;;3.83;;
62654;SDS011;48717;55.556;37.816;2023-05-07T04:10:38;7.15;;;3.97;;
62654;SDS011;48717;55.556;37.816;2023-05-07T04:13:09;6.85;;;3.75;;
62654;SDS011;48717;55.556;37.816;2023-05-07T04:15:36;7.15;;;4.40;;
62654;SDS011;48717;55.556;37.816;2023-05-07T04:18:07;10.38;;;3.58;;
62654;SDS011;48717;55.556;37.816;2023-05-07T04:20:36;6.47;;;3.92;;
62654;SDS011;48717;55.556;37.816;2023-05-07T04:23:07;7.40;;;4.25;;
62654;SDS011;48717;55.556;37.816;2023-05-07T04:25:35;7.43;;;3.35;;
62654;SDS011;48717;55.556;37.816;2023-05-07T04:28:16;7.35;;;3.72;;
62654;SDS011;48717;55.556;37.816;2023-05-07T04:30:44;7.15;;;3.50;;
62654;SDS011;48717;55.556;37.816;2023-05-07T04:33:13;5.07;;;3.60;;
62654;SDS011;48717;55.556;37.816;2023-05-07T04:35:42;6.13;;;3.92;;
62654;SDS011;48717;55.556;37.816;2023-05-07T04:38:09;6.75;;;3.53;;
62654;SDS011;48717;55.556;37.816;2023-05-07T04:40:37;6.78;;;4.38;;
62654;SDS011;48717;55.556;37.816;2023-05-07T04:43:07;6.07;;;4.07;;
62654;SDS011;48717;55.556;37.816;2023-05-07T04:45:42;7.97;;;3.70;;
62654;SDS011;48717;55.556;37.816;2023-05-07T04:48:10;5.88;;;4.07;;
62654;SDS011;48717;55.556;37.816;2023-05-07T04:50:39;9.75;;;3.80;;
62654;SDS011;48717;55.556;37.816;2023-05-07T04:53:08;6.97;;;3.90;;
62654;SDS011;48717;55.556;37.816;2023-05-07T04:55:35;4.63;;;3.25;;
62654;SDS011;48717;55.556;37.816;2023-05-07T04:58:03;8.85;;;3.88;;
62654;SDS011;48717;55.556;37.816;2023-05-07T05:00:34;8.52;;;3.75;;
62654;SDS011;48717;55.556;37.816;2023-05-07T05:03:04;8.23;;;4.18;;
62654;SDS011;48717;55.556;37.816;2023-05-07T05:05:32;6.88;;;3.63;;
62654;SDS011;48717;55.556;37.816;2023-05-07T05:08:01;7.32;;;3.95;;
62654;SDS011;48717;55.556;37.816;2023-05-07T05:10:28;13.85;;;4.07;;
62654;SDS011;48717;55.556;37.816;2023-05-07T05:12:56;6.15;;;3.38;;
62654;SDS011;48717;55.556;37.816;2023-05-07T05:15:23;5.18;;;3.03;;
62654;SDS011;48717;55.556;37.816;2023-05-07T05:17:51;9.00;;;3.33;;
62654;SDS011;48717;55.556;37.816;2023-05-07T05:20:19;8.05;;;3.78;;
62654;SDS011;48717;55.556;37.816;2023-05-07T05:22:47;3.90;;;2.67;;
62654;SDS011;48717;55.556;37.816;2023-05-07T05:25:15;5.75;;;2.90;;
62654;SDS011;48717;55.556;37.816;2023-05-07T05:27:42;5.47;;;2.80;;
62654;SDS011;48717;55.556;37.816;2023-05-07T05:30:10;4.25;;;2.90;;
62654;SDS011;48717;55.556;37.816;2023-05-07T05:32:39;6.45;;;4.35;;
62654;SDS011;48717;55.556;37.816;2023-05-07T05:35:06;7.65;;;3.13;;
62654;SDS011;48717;55.556;37.816;2023-05-07T05:37:35;6.45;;;2.85;;
62654;SDS011;48717;55.556;37.816;2023-05-07T05:40:04;3.72;;;2.08;;
62654;SDS011;48717;55.556;37.816;2023-05-07T05:42:33;3.60;;;2.80;;
62654;SDS011;48717;55.556;37.816;2023-05-07T05:45:00;4.07;;;2.60;;
62654;SDS011;48717;55.556;37.816;2023-05-07T05:47:31;4.15;;;2.38;;
62654;SDS011;48717;55.556;37.816;2023-05-07T05:49:59;7.40;;;2.85;;
62654;SDS011;48717;55.556;37.816;2023-05-07T05:52:30;7.10;;;3.08;;
62654;SDS011;48717;55.556;37.816;2023-05-07T05:54:58;3.60;;;2.50;;
62654;SDS011;48717;55.556;37.816;2023-05-07T05:57:25;4.68;;;2.50;;
62654;SDS011;48717;55.556;37.816;2023-05-07T05:59:55;9.88;;;2.40;;
62654;SDS011;48717;55.556;37.816;2023-05-07T06:02:23;7.20;;;2.70;;
62654;SDS011;48717;55.556;37.816;2023-05-07T06:04:52;3.50;;;2.42;;
62654;SDS011;48717;55.556;37.816;2023-05-07T06:07:21;3.58;;;2.38;;
62654;SDS011;48717;55.556;37.816;2023-05-07T06:09:49;5.07;;;2.42;;
62654;SDS011;48717;55.556;37.816;2023-05-07T06:12:16;3.65;;;2.67;;
62654;SDS011;48717;55.556;37.816;2023-05-07T06:14:43;4.95;;;2.22;;
62654;SDS011;48717;55.556;37.816;2023-05-07T06:17:11;4.25;;;2.30;;
62654;SDS011;48717;55.556;37.816;2023-05-07T06:19:38;3.15;;;2.28;;
62654;SDS011;48717;55.556;37.816;2023-05-07T06:22:06;5.10;;;2.45;;
62654;SDS011;48717;55.556;37.816;2023-05-07T06:24:34;3.83;;;1.90;;
62654;SDS011;48717;55.556;37.816;2023-05-07T06:27:04;3.00;;;1.87;;
62654;SDS011;48717;55.556;37.816;2023-05-07T06:29:32;6.65;;;2.00;;
62654;SDS011;48717;55.556;37.816;2023-05-07T06:32:09;3.70;;;2.33;;
62654;SDS011;48717;55.556;37.816;2023-05-07T06:34:41;3.53;;;1.90;;
62654;SDS011;48717;55.556;37.816;2023-05-07T06:37:08;4.32;;;2.17;;
62654;SDS011;48717;55.556;37.816;2023-05-07T06:39:58;3.15;;;2.30;;
62654;SDS011;48717;55.556;37.816;2023-05-07T06:42:38;4.30;;;2.22;;
62654;SDS011;48717;55.556;37.816;2023-05-07T06:45:23;9.75;;;2.80;;
62654;SDS011;48717;55.556;37.816;2023-05-07T06:47:53;6.13;;;2.10;;
62654;SDS011;48717;55.556;37.816;2023-05-07T06:50:22;12.52;;;3.10;;
62654;SDS011;48717;55.556;37.816;2023-05-07T06:52:54;5.25;;;2.30;;
62654;SDS011;48717;55.556;37.816;2023-05-07T06:55:21;6.22;;;2.50;;
62654;SDS011;48717;55.556;37.816;2023-05-07T06:57:49;3.78;;;2.40;;
62654;SDS011;48717;55.556;37.816;2023-05-07T07:00:17;3.47;;;2.30;;
62654;SDS011;48717;55.556;37.816;2023-05-07T07:02:50;7.97;;;2.50;;
62654;SDS011;48717;55.556;37.816;2023-05-07T07:05:20;3.78;;;2.33;;
62654;SDS011;48717;55.556;37.816;2023-05-07T07:07:48;5.28;;;2.53;;
62654;SDS011;48717;55.556;37.816;2023-05-07T07:10:21;7.50;;;2.50;;
62654;SDS011;48717;55.556;37.816;2023-05-07T07:12:50;5.93;;;2.17;;
62654;SDS011;48717;55.556;37.816;2023-05-07T07:15:20;4.07;;;2.80;;
62654;SDS011;48717;55.556;37.816;2023-05-07T07:17:49;4.72;;;2.38;;
62654;SDS011;48717;55.556;37.816;2023-05-07T07:20:16;5.25;;;2.47;;
62654;SDS011;48717;55.556;37.816;2023-05-07T07:22:44;4.80;;;2.55;;
62654;SDS011;48717;55.556;37.816;2023-05-07T07:25:13;6.18;;;2.47;;
62654;SDS011;48717;55.556;37.816;2023-05-07T07:27:40;3.05;;;2.30;;
62654;SDS011;48717;55.556;37.816;2023-05-07T07:30:08;8.35;;;2.55;;
62654;SDS011;48717;55.556;37.816;2023-05-07T07:32:39;5.00;;;2.45;;
62654;SDS011;48717;55.556;37.816;2023-05-07T07:35:06;2.58;;;2.15;;
62654;SDS011;48717;55.556;37.816;2023-05-07T07:37:35;4.25;;;2.17;;
62654;SDS011;48717;55.556;37.816;2023-05-07T07:40:02;8.02;;;2.40;;
62654;SDS011;48717;55.556;37.816;2023-05-07T07:42:31;4.38;;;2.10;;
62654;SDS011;48717;55.556;37.816;2023-05-07T07:44:58;6.55;;;2.65;;
62654;SDS011;48717;55.556;37.816;2023-05-07T07:47:29;5.43;;;2.35;;
62654;SDS011;48717;55.556;37.816;2023-05-07T07:49:57;9.68;;;2.78;;
62654;SDS011;48717;55.556;37.816;2023-05-07T07:52:24;2.90;;;2.17;;
62654;SDS011;48717;55.556;37.816;2023-05-07T07:54:51;8.18;;;2.50;;
62654;SDS011;48717;55.556;37.816;2023-05-07T07:57:20;4.60;;;2.53;;
62654;SDS011;48717;55.556;37.816;2023-05-07T07:59:47;3.80;;;2.20;;
62654;SDS011;48717;55.556;37.816;2023-05-07T08:02:15;3.22;;;2.10;;
62654;SDS011;48717;55.556;37.816;2023-05-07T08:04:42;5.30;;;2.25;;
62654;SDS011;48717;55.556;37.816;2023-05-07T08:07:10;3.67;;;1.98;;
62654;SDS011;48717;55.556;37.816;2023-05-07T08:12:09;5.30;;;1.92;;
62654;SDS011;48717;55.556;37.816;2023-05-07T08:14:37;5.53;;;2.05;;
62654;SDS011;48717;55.556;37.816;2023-05-07T08:17:06;3.72;;;1.90;;
62654;SDS011;48717;55.556;37.816;2023-05-07T08:19:34;4.32;;;2.00;;
62654;SDS011;48717;55.556;37.816;2023-05-07T08:22:03;4.97;;;2.17;;
62654;SDS011;48717;55.556;37.816;2023-05-07T08:24:33;5.88;;;2.10;;
62654;SDS011;48717;55.556;37.816;2023-05-07T08:27:00;5.18;;;2.05;;
62654;SDS011;48717;55.556;37.816;2023-05-07T08:29:27;7.70;;;2.20;;
62654;SDS011;48717;55.556;37.816;2023-05-07T08:31:55;5.13;;;2.03;;
62654;SDS011;48717;55.556;37.816;2023-05-07T08:34:22;5.43;;;2.25;;
62654;SDS011;48717;55.556;37.816;2023-05-07T08:36:51;4.20;;;2.00;;
62654;SDS011;48717;55.556;37.816;2023-05-07T08:39:22;6.90;;;1.85;;
62654;SDS011;48717;55.556;37.816;2023-05-07T08:41:52;11.70;;;2.67;;
62654;SDS011;48717;55.556;37.816;2023-05-07T08:44:25;6.72;;;2.13;;
62654;SDS011;48717;55.556;37.816;2023-05-07T08:46:56;3.70;;;1.98;;
62654;SDS011;48717;55.556;37.816;2023-05-07T08:49:25;4.95;;;1.88;;
62654;SDS011;48717;55.556;37.816;2023-05-07T08:51:54;3.85;;;1.70;;
62654;SDS011;48717;55.556;37.816;2023-05-07T08:54:23;3.70;;;1.52;;
62654;SDS011;48717;55.556;37.816;2023-05-07T08:56:52;2.95;;;1.55;;
62654;SDS011;48717;55.556;37.816;2023-05-07T08:59:19;3.92;;;1.70;;
62654;SDS011;48717;55.556;37.816;2023-05-07T09:01:46;3.63;;;1.73;;
62654;SDS011;48717;55.556;37.816;2023-05-07T09:04:14;2.10;;;1.73;;
62654;SDS011;48717;55.556;37.816;2023-05-07T09:06:43;1.92;;;1.52;;
62654;SDS011;48717;55.556;37.816;2023-05-07T09:09:14;3.40;;;1.80;;
62654;SDS011;48717;55.556;37.816;2023-05-07T09:11:44;4.13;;;2.00;;
62654;SDS011;48717;55.556;37.816;2023-05-07T09:14:14;2.42;;;1.80;;
62654;SDS011;48717;55.556;37.816;2023-05-07T09:16:44;6.97;;;2.63;;
62654;SDS011;48717;55.556;37.816;2023-05-07T09:19:13;3.50;;;1.70;;
62654;SDS011;48717;55.556;37.816;2023-05-07T09:21:44;3.33;;;1.58;;
62654;SDS011;48717;55.556;37.816;2023-05-07T09:24:15;2.22;;;1.70;;
62654;SDS011;48717;55.556;37.816;2023-05-07T09:26:43;4.18;;;1.52;;
62654;SDS011;48717;55.556;37.816;2023-05-07T09:29:12;3.95;;;1.80;;
62654;SDS011;48717;55.556;37.816;2023-05-07T09:31:39;4.07;;;1.90;;
62654;SDS011;48717;55.556;37.816;2023-05-07T09:34:11;4.05;;;1.90;;
62654;SDS011;48717;55.556;37.816;2023-05-07T09:36:40;2.73;;;1.50;;
62654;SDS011;48717;55.556;37.816;2023-05-07T09:39:07;2.15;;;1.70;;
62654;SDS011;48717;55.556;37.816;2023-05-07T09:41:42;3.55;;;1.45;;
62654;SDS011;48717;55.556;37.816;2023-05-07T09:44:20;6.85;;;1.80;;
62654;SDS011;48717;55.556;37.816;2023-05-07T09:46:53;1.60;;;1.30;;
62654;SDS011;48717;55.556;37.816;2023-05-07T09:49:29;2.63;;;1.55;;
62654;SDS011;48717;55.556;37.816;2023-05-07T09:52:03;4.28;;;1.73;;
62654;SDS011;48717;55.556;37.816;2023-05-07T09:54:43;2.38;;;1.70;;
62654;SDS011;48717;55.556;37.816;2023-05-07T09:57:16;3.90;;;1.80;;
62654;SDS011;48717;55.556;37.816;2023-05-07T09:59:50;2.53;;;1.65;;
62654;SDS011;48717;55.556;37.816;2023-05-07T10:02:19;5.95;;;1.90;;
62654;SDS011;48717;55.556;37.816;2023-05-07T10:04:51;2.83;;;1.67;;
62654;SDS011;48717;55.556;37.816;2023-05-07T10:07:24;4.20;;;1.73;;
62654;SDS011;48717;55.556;37.816;2023-05-07T10:09:55;8.95;;;2.40;;
62654;SDS011;48717;55.556;37.816;2023-05-07T10:12:31;2.70;;;1.90;;
62654;SDS011;48717;55.556;37.816;2023-05-07T10:15:09;2.17;;;1.70;;
62654;SDS011;48717;55.556;37.816;2023-05-07T10:17:40;3.45;;;1.90;;
62654;SDS011;48717;55.556;37.816;2023-05-07T10:20:09;4.43;;;1.98;;
62654;SDS011;48717;55.556;37.816;2023-05-07T10:22:43;5.30;;;1.80;;
62654;SDS011;48717;55.556;37.816;2023-05-07T10:25:25;5.32;;;1.83;;
62654;SDS011;48717;55.556;37.816;2023-05-07T10:28:05;2.95;;;1.83;;
62654;SDS011;48717;55.556;37.816;2023-05-07T10:30:58;2.20;;;1.80;;
62654;SDS011;48717;55.556;37.816;2023-05-07T10:33:55;7.80;;;2.65;;
62654;SDS011;48717;55.556;37.816;2023-05-07T10:36:25;3.72;;;1.70;;
62654;SDS011;48717;55.556;37.816;2023-05-07T10:38:54;3.05;;;1.70;;
62654;SDS011;48717;55.556;37.816;2023-05-07T10:41:22;3.05;;;1.60;;
62654;SDS011;48717;55.556;37.816;2023-05-07T10:43:50;4.03;;;1.67;;
62654;SDS011;48717;55.556;37.816;2023-05-07T10:46:28;3.17;;;1.80;;
62654;SDS011;48717;55.556;37.816;2023-05-07T10:49:06;2.55;;;1.80;;
62654;SDS011;48717;55.556;37.816;2023-05-07T10:52:15;3.75;;;2.08;;
62654;SDS011;48717;55.556;37.816;2023-05-07T10:57:52;7.40;;;2.10;;
62654;SDS011;48717;55.556;37.816;2023-05-07T11:05:35;6.43;;;1.70;;
62654;SDS011;48717;55.556;37.816;2023-05-07T11:08:17;2.45;;;1.70;;
62654;SDS011;48717;55.556;37.816;2023-05-07T11:10:54;3.00;;;1.55;;
62654;SDS011;48717;55.556;37.816;2023-05-07T11:13:46;6.45;;;1.80;;
62654;SDS011;48717;55.556;37.816;2023-05-07T11:16:38;7.38;;;2.13;;
62654;SDS011;48717;55.556;37.816;2023-05-07T11:25:18;3.60;;;2.20;;
62654;SDS011;48717;55.556;37.816;2023-05-07T11:27:54;2.93;;;1.90;;
62654;SDS011;48717;55.556;37.816;2023-05-07T11:30:24;2.72;;;1.85;;
62654;SDS011;48717;55.556;37.816;2023-05-07T11:32:52;3.72;;;1.88;;
62654;SDS011;48717;55.556;37.816;2023-05-07T11:35:19;2.92;;;1.90;;
62654;SDS011;48717;55.556;37.816;2023-05-07T11:37:57;4.00;;;2.25;;
62654;SDS011;48717;55.556;37.816;2023-05-07T11:40:27;4.45;;;2.25;;
62654;SDS011;48717;55.556;37.816;2023-05-07T11:42:55;2.88;;;2.03;;
62654;SDS011;48717;55.556;37.816;2023-05-07T11:45:22;3.63;;;2.00;;
62654;SDS011;48717;55.556;37.816;2023-05-07T11:47:52;3.42;;;2.15;;
62654;SDS011;48717;55.556;37.816;2023-05-07T11:50:19;3.10;;;1.98;;
62654;SDS011;48717;55.556;37.816;2023-05-07T11:52:50;3.17;;;1.80;;
62654;SDS011;48717;55.556;37.816;2023-05-07T11:55:18;5.35;;;2.30;;
62654;SDS011;48717;55.556;37.816;2023-05-07T11:57:46;3.00;;;2.20;;
62654;SDS011;48717;55.556;37.816;2023-05-07T12:00:15;3.08;;;1.80;;
62654;SDS011;48717;55.556;37.816;2023-05-07T12:02:43;2.42;;;1.90;;
62654;SDS011;48717;55.556;37.816;2023-05-07T12:05:12;2.63;;;1.80;;
62654;SDS011;48717;55.556;37.816;2023-05-07T12:07:40;5.32;;;2.15;;
62654;SDS011;48717;55.556;37.816;2023-05-07T12:10:07;6.57;;;2.85;;
62654;SDS011;48717;55.556;37.816;2023-05-07T12:12:38;6.22;;;2.60;;
62654;SDS011;48717;55.556;37.816;2023-05-07T12:15:07;5.05;;;2.72;;
62654;SDS011;48717;55.556;37.816;2023-05-07T12:17:36;6.50;;;2.20;;
62654;SDS011;48717;55.556;37.816;2023-05-07T12:20:04;8.75;;;2.05;;
62654;SDS011;48717;55.556;37.816;2023-05-07T12:22:31;3.80;;;2.22;;
62654;SDS011;48717;55.556;37.816;2023-05-07T12:24:58;6.20;;;2.80;;
62654;SDS011;48717;55.556;37.816;2023-05-07T12:27:27;6.07;;;2.33;;
62654;SDS011;48717;55.556;37.816;2023-05-07T12:29:54;4.70;;;2.40;;
62654;SDS011;48717;55.556;37.816;2023-05-07T12:32:25;6.30;;;2.38;;
62654;SDS011;48717;55.556;37.816;2023-05-07T12:34:52;4.45;;;2.00;;
62654;SDS011;48717;55.556;37.816;2023-05-07T12:37:25;3.25;;;2.05;;
62654;SDS011;48717;55.556;37.816;2023-05-07T12:40:06;3.53;;;1.80;;
62654;SDS011;48717;55.556;37.816;2023-05-07T12:42:36;2.58;;;1.50;;
62654;SDS011;48717;55.556;37.816;2023-05-07T12:45:15;3.15;;;1.73;;
62654;SDS011;48717;55.556;37.816;2023-05-07T12:47:46;4.53;;;2.15;;
62654;SDS011;48717;55.556;37.816;2023-05-07T12:50:15;3.17;;;2.00;;
62654;SDS011;48717;55.556;37.816;2023-05-07T12:52:45;5.78;;;2.00;;
62654;SDS011;48717;55.556;37.816;2023-05-07T12:55:14;10.80;;;2.10;;
62654;SDS011;48717;55.556;37.816;2023-05-07T12:57:43;3.13;;;1.50;;
62654;SDS011;48717;55.556;37.816;2023-05-07T13:00:12;5.00;;;2.00;;
62654;SDS011;48717;55.556;37.816;2023-05-07T13:02:41;5.13;;;1.88;;
62654;SDS011;48717;55.556;37.816;2023-05-07T13:05:12;3.22;;;1.80;;
62654;SDS011;48717;55.556;37.816;2023-05-07T13:07:40;3.70;;;1.80;;
62654;SDS011;48717;55.556;37.816;2023-05-07T13:10:08;7.00;;;2.10;;
62654;SDS011;48717;55.556;37.816;2023-05-07T13:12:36;1.63;;;1.52;;
62654;SDS011;48717;55.556;37.816;2023-05-07T13:15:03;4.40;;;2.20;;
62654;SDS011;48717;55.556;37.816;2023-05-07T13:17:31;7.10;;;2.40;;
62654;SDS011;48717;55.556;37.816;2023-05-07T13:19:58;14.13;;;2.47;;
62654;SDS011;48717;55.556;37.816;2023-05-07T13:22:25;4.28;;;2.20;;
62654;SDS011;48717;55.556;37.816;2023-05-07T13:24:53;4.65;;;2.15;;
62654;SDS011;48717;55.556;37.816;2023-05-07T13:27:20;3.42;;;2.10;;
62654;SDS011;48717;55.556;37.816;2023-05-07T13:29:47;6.15;;;1.88;;
62654;SDS011;48717;55.556;37.816;2023-05-07T13:32:14;3.25;;;2.13;;
62654;SDS011;48717;55.556;37.816;2023-05-07T13:34:41;9.15;;;2.65;;
62654;SDS011;48717;55.556;37.816;2023-05-07T13:37:08;3.60;;;2.00;;
62654;SDS011;48717;55.556;37.816;2023-05-07T13:39:37;3.30;;;1.70;;
62654;SDS011;48717;55.556;37.816;2023-05-07T13:42:04;3.38;;;1.88;;
62654;SDS011;48717;55.556;37.816;2023-05-07T13:44:32;4.25;;;1.80;;
62654;SDS011;48717;55.556;37.816;2023-05-07T13:46:59;4.65;;;1.70;;
62654;SDS011;48717;55.556;37.816;2023-05-07T13:49:27;2.40;;;1.80;;
62654;SDS011;48717;55.556;37.816;2023-05-07T13:51:54;6.72;;;2.13;;
62654;SDS011;48717;55.556;37.816;2023-05-07T13:54:22;4.60;;;2.10;;
62654;SDS011;48717;55.556;37.816;2023-05-07T13:56:49;3.40;;;1.90;;
62654;SDS011;48717;55.556;37.816;2023-05-07T13:59:16;9.10;;;1.73;;
62654;SDS011;48717;55.556;37.816;2023-05-07T14:01:43;3.40;;;1.90;;
62654;SDS011;48717;55.556;37.816;2023-05-07T14:04:10;2.53;;;2.00;;
62654;SDS011;48717;55.556;37.816;2023-05-07T14:06:38;2.30;;;1.70;;
62654;SDS011;48717;55.556;37.816;2023-05-07T14:09:05;2.92;;;1.83;;
62654;SDS011;48717;55.556;37.816;2023-05-07T14:11:32;3.58;;;2.00;;
62654;SDS011;48717;55.556;37.816;2023-05-07T14:14:01;2.92;;;1.92;;
62654;SDS011;48717;55.556;37.816;2023-05-07T14:16:29;4.28;;;2.30;;
62654;SDS011;48717;55.556;37.816;2023-05-07T14:18:56;3.60;;;1.92;;
62654;SDS011;48717;55.556;37.816;2023-05-07T14:21:24;3.15;;;1.80;;
62654;SDS011;48717;55.556;37.816;2023-05-07T14:23:51;4.30;;;1.88;;
62654;SDS011;48717;55.556;37.816;2023-05-07T14:26:20;3.38;;;2.15;;
62654;SDS011;48717;55.556;37.816;2023-05-07T14:28:47;8.25;;;2.47;;
62654;SDS011;48717;55.556;37.816;2023-05-07T14:31:14;6.65;;;2.42;;
62654;SDS011;48717;55.556;37.816;2023-05-07T14:33:41;4.50;;;2.50;;
62654;SDS011;48717;55.556;37.816;2023-05-07T14:36:08;4.03;;;2.30;;
62654;SDS011;48717;55.556;37.816;2023-05-07T14:38:36;5.82;;;2.40;;
62654;SDS011;48717;55.556;37.816;2023-05-07T14:41:03;4.88;;;2.35;;
62654;SDS011;48717;55.556;37.816;2023-05-07T14:43:30;6.93;;;2.05;;
62654;SDS011;48717;55.556;37.816;2023-05-07T14:45:57;4.28;;;1.90;;
62654;SDS011;48717;55.556;37.816;2023-05-07T14:48:24;3.25;;;1.80;;
62654;SDS011;48717;55.556;37.816;2023-05-07T14:50:51;8.25;;;2.15;;
62654;SDS011;48717;55.556;37.816;2023-05-07T14:53:19;4.72;;;1.90;;
62654;SDS011;48717;55.556;37.816;2023-05-07T14:55:47;7.25;;;2.28;;
62654;SDS011;48717;55.556;37.816;2023-05-07T14:58:14;8.05;;;2.33;;
62654;SDS011;48717;55.556;37.816;2023-05-07T15:00:41;3.60;;;1.90;;
62654;SDS011;48717;55.556;37.816;2023-05-07T15:03:09;2.85;;;1.70;;